createdAt,value
2022-12-31T00:00:34.754Z,2.80
2022-12-31T00:03:22.096Z,2.42
2022-12-31T00:05:49.196Z,2.60
2022-12-31T00:08:16.357Z,2.97
2022-12-31T00:10:43.314Z,3.08
2022-12-31T00:13:12.791Z,2.83
2022-12-31T00:15:41.607Z,3.15
2022-12-31T00:18:09.234Z,3.05
2022-12-31T00:20:41.015Z,3.08
2022-12-31T00:23:10.243Z,2.38
2022-12-31T00:25:37.663Z,3.08
2022-12-31T00:28:05.643Z,2.90
2022-12-31T00:30:34.292Z,2.95
2022-12-31T00:33:01.562Z,3.20
2022-12-31T00:35:28.505Z,2.80
2022-12-31T00:37:55.720Z,2.75
2022-12-31T00:40:22.662Z,3.00
2022-12-31T00:42:49.913Z,2.95
2022-12-31T00:45:16.996Z,3.55
2022-12-31T00:47:44.212Z,3.30
2022-12-31T00:50:11.257Z,3.35
2022-12-31T00:52:38.506Z,3.30
2022-12-31T00:55:06.253Z,2.85
2022-12-31T00:57:33.559Z,3.00
2022-12-31T01:00:00.628Z,2.72
2022-12-31T01:02:27.994Z,3.20
2022-12-31T01:04:55.074Z,3.20
2022-12-31T01:07:22.305Z,3.38
2022-12-31T01:09:49.336Z,2.80
2022-12-31T01:12:16.594Z,2.85
2022-12-31T01:14:44.846Z,2.65
2022-12-31T01:17:13.432Z,2.33
2022-12-31T01:19:40.539Z,2.80
2022-12-31T01:22:07.724Z,2.42
2022-12-31T01:24:34.760Z,2.63
2022-12-31T01:27:01.910Z,2.13
2022-12-31T01:29:29.726Z,2.92
2022-12-31T01:31:57.036Z,2.35
2022-12-31T01:34:23.977Z,2.53
2022-12-31T01:36:51.359Z,2.67
2022-12-31T01:39:18.249Z,2.72
2022-12-31T01:41:47.931Z,2.33
2022-12-31T01:44:23.997Z,2.58
2022-12-31T01:47:00.181Z,2.28
2022-12-31T01:49:41.114Z,2.28
2022-12-31T01:52:46.920Z,2.13
2022-12-31T01:55:32.864Z,2.13
2022-12-31T01:58:14.249Z,2.30
2022-12-31T02:00:42.155Z,2.10
2022-12-31T02:03:09.771Z,2.30
2022-12-31T02:05:53.111Z,1.90
2022-12-31T02:08:21.985Z,1.90
2022-12-31T02:10:49.013Z,1.77
2022-12-31T02:13:16.496Z,2.63
2022-12-31T02:16:13.648Z,2.08
2022-12-31T02:18:56.323Z,1.98
2022-12-31T02:21:55.825Z,2.03
2022-12-31T02:24:48.135Z,2.10
2022-12-31T02:28:11.834Z,2.17
2022-12-31T02:30:42.519Z,2.58
2022-12-31T02:33:39.013Z,2.28
2022-12-31T02:36:17.903Z,1.95
2022-12-31T02:38:48.761Z,2.20
2022-12-31T02:41:38.307Z,1.80
2022-12-31T02:44:26.049Z,1.92
2022-12-31T02:47:05.290Z,1.98
2022-12-31T02:49:57.291Z,1.50
2022-12-31T02:52:51.265Z,1.52
2022-12-31T02:56:08.895Z,1.40
2022-12-31T02:59:12.126Z,1.40
2022-12-31T03:02:08.128Z,1.50
2022-12-31T03:04:36.391Z,1.55
2022-12-31T03:07:28.875Z,1.50
2022-12-31T03:09:56.717Z,1.30
2022-12-31T03:12:47.091Z,1.33
2022-12-31T03:15:27.792Z,1.40
2022-12-31T03:17:57.775Z,1.40
2022-12-31T03:20:50.647Z,1.33
2022-12-31T03:23:30.169Z,1.60
2022-12-31T03:25:58.874Z,1.15
2022-12-31T03:28:30.123Z,1.00
2022-12-31T03:31:01.549Z,1.27
2022-12-31T03:33:41.501Z,1.10
2022-12-31T03:36:14.326Z,1.38
2022-12-31T03:38:41.738Z,1.20
2022-12-31T03:41:11.190Z,1.77
2022-12-31T03:43:38.984Z,1.30
2022-12-31T03:46:06.579Z,1.52
2022-12-31T03:48:33.555Z,1.35
2022-12-31T03:51:00.738Z,1.48
2022-12-31T03:53:27.793Z,1.35
2022-12-31T03:55:55.624Z,1.60
2022-12-31T03:58:23.198Z,1.50
2022-12-31T04:00:51.040Z,1.75
2022-12-31T04:03:18.336Z,1.23
2022-12-31T04:05:45.579Z,1.20
2022-12-31T04:08:12.611Z,1.20
2022-12-31T04:10:39.942Z,1.27
2022-12-31T04:13:06.878Z,1.15
2022-12-31T04:15:34.096Z,1.50
2022-12-31T04:18:01.050Z,1.02
2022-12-31T04:20:28.244Z,1.10
2022-12-31T04:22:55.122Z,1.20
2022-12-31T04:25:22.290Z,1.27
2022-12-31T04:27:49.303Z,1.10
2022-12-31T04:30:16.687Z,1.20
2022-12-31T04:32:43.572Z,1.23
2022-12-31T04:35:11.643Z,1.20
2022-12-31T04:37:39.226Z,1.20
2022-12-31T04:40:08.539Z,1.27
2022-12-31T04:42:36.505Z,1.00
2022-12-31T04:45:04.528Z,1.60
2022-12-31T04:47:31.905Z,1.20
2022-12-31T04:49:58.880Z,1.70
2022-12-31T04:52:26.135Z,1.10
2022-12-31T04:54:53.187Z,1.38
2022-12-31T04:57:20.446Z,1.45
2022-12-31T04:59:47.746Z,1.20
2022-12-31T05:02:15.144Z,1.40
2022-12-31T05:04:42.278Z,1.38
2022-12-31T05:07:09.534Z,1.30
2022-12-31T05:09:36.649Z,1.33
2022-12-31T05:12:04.138Z,0.90
2022-12-31T05:14:31.029Z,1.25
2022-12-31T05:16:59.381Z,0.93
2022-12-31T05:19:26.328Z,1.10
2022-12-31T05:22:12.239Z,1.08
2022-12-31T05:24:39.447Z,1.08
2022-12-31T05:27:06.629Z,1.20
2022-12-31T05:29:33.602Z,1.15
2022-12-31T05:32:00.808Z,1.00
2022-12-31T05:34:27.741Z,0.88
2022-12-31T05:36:54.900Z,1.25
2022-12-31T05:39:21.767Z,1.00
2022-12-31T05:41:48.970Z,1.30
2022-12-31T05:44:15.838Z,1.00
2022-12-31T05:46:43.005Z,0.98
2022-12-31T05:49:09.926Z,1.38
2022-12-31T05:51:37.228Z,1.10
2022-12-31T05:54:04.590Z,1.10
2022-12-31T05:56:32.819Z,1.00
2022-12-31T05:58:59.784Z,0.95
2022-12-31T06:01:27.079Z,1.02
2022-12-31T06:03:54.121Z,1.15
2022-12-31T06:06:21.566Z,1.80
2022-12-31T06:08:52.649Z,1.17
2022-12-31T06:11:19.971Z,0.95
2022-12-31T06:13:46.885Z,0.95
2022-12-31T06:16:14.210Z,0.80
2022-12-31T06:18:41.378Z,1.05
2022-12-31T06:21:09.329Z,0.80
2022-12-31T06:23:36.321Z,0.75
2022-12-31T06:26:05.152Z,0.95
2022-12-31T06:28:32.043Z,0.80
2022-12-31T06:31:11.053Z,0.75
2022-12-31T06:33:38.387Z,0.88
2022-12-31T06:36:09.127Z,0.70
2022-12-31T06:38:41.224Z,0.60
2022-12-31T06:41:14.954Z,0.70
2022-12-31T06:43:42.896Z,0.88
2022-12-31T06:46:14.555Z,0.70
2022-12-31T06:48:43.218Z,0.80
2022-12-31T06:51:17.916Z,1.08
2022-12-31T06:53:50.690Z,0.80
2022-12-31T06:56:32.950Z,0.70
2022-12-31T06:59:00.881Z,0.60
2022-12-31T07:01:44.770Z,0.60
2022-12-31T07:04:51.704Z,0.82
2022-12-31T07:08:03.110Z,0.68
2022-12-31T07:11:05.083Z,0.63
2022-12-31T07:14:09.452Z,0.82
2022-12-31T07:17:05.922Z,0.70
2022-12-31T07:19:57.718Z,1.00
2022-12-31T07:22:25.655Z,0.90
2022-12-31T07:24:53.418Z,0.82
2022-12-31T07:27:48.429Z,1.08
2022-12-31T07:30:17.907Z,0.80
2022-12-31T07:33:19.990Z,0.90
2022-12-31T07:36:26.267Z,0.65
2022-12-31T07:39:16.659Z,0.77
2022-12-31T07:42:16.578Z,0.70
2022-12-31T07:45:01.264Z,0.75
2022-12-31T07:47:30.126Z,0.82
2022-12-31T07:49:58.163Z,0.90
2022-12-31T07:52:26.510Z,0.70
2022-12-31T07:54:53.556Z,0.70
2022-12-31T07:57:28.754Z,0.80
2022-12-31T08:03:20.937Z,0.82
2022-12-31T08:06:11.700Z,0.80
2022-12-31T08:09:21.544Z,0.70
2022-12-31T08:12:08.593Z,0.90
2022-12-31T08:14:44.656Z,0.90
2022-12-31T08:17:18.590Z,0.70
2022-12-31T08:19:46.745Z,0.80
2022-12-31T08:22:28.796Z,0.80
2022-12-31T08:25:27.761Z,1.17
2022-12-31T08:28:31.168Z,1.13
2022-12-31T08:31:05.526Z,0.80
2022-12-31T08:33:41.974Z,1.15
2022-12-31T08:36:34.456Z,1.00
2022-12-31T08:39:28.423Z,0.77
2022-12-31T08:41:58.374Z,0.90
2022-12-31T08:44:54.410Z,1.10
2022-12-31T08:48:05.874Z,1.20
2022-12-31T08:50:33.373Z,1.05
2022-12-31T08:53:01.215Z,0.75
2022-12-31T08:55:28.965Z,0.90
2022-12-31T08:58:28.359Z,0.63
2022-12-31T09:00:59.391Z,0.90
2022-12-31T09:03:47.900Z,0.60
2022-12-31T09:06:20.447Z,0.77
2022-12-31T09:09:21.450Z,0.68
2022-12-31T09:11:59.345Z,0.55
2022-12-31T09:15:03.786Z,0.60
2022-12-31T09:17:49.837Z,0.82
2022-12-31T09:20:41.799Z,1.38
2022-12-31T09:23:11.092Z,0.90
2022-12-31T09:26:07.074Z,1.10
2022-12-31T09:28:49.264Z,0.70
2022-12-31T09:31:55.573Z,0.70
2022-12-31T09:34:35.357Z,0.88
2022-12-31T09:37:38.684Z,1.10
2022-12-31T09:40:28.643Z,0.85
2022-12-31T09:43:43.807Z,0.70
2022-12-31T09:46:28.561Z,0.70
2022-12-31T09:49:31.620Z,0.60
2022-12-31T09:52:19.958Z,1.00
2022-12-31T09:55:07.401Z,0.93
2022-12-31T09:57:58.357Z,0.90
2022-12-31T10:00:47.215Z,0.75
2022-12-31T10:03:58.815Z,0.60
2022-12-31T10:06:47.977Z,0.82
2022-12-31T10:09:55.785Z,1.33
2022-12-31T10:12:44.598Z,0.75
2022-12-31T10:15:32.916Z,0.70
2022-12-31T10:18:41.936Z,1.10
2022-12-31T10:21:58.016Z,1.65
2022-12-31T10:25:37.792Z,1.20
2022-12-31T10:28:28.865Z,1.45
2022-12-31T10:31:31.342Z,1.80
2022-12-31T10:34:17.243Z,1.92
2022-12-31T10:36:56.387Z,1.00
2022-12-31T10:40:03.915Z,3.40
2022-12-31T10:43:04.710Z,3.10
2022-12-31T10:46:20.902Z,1.77
2022-12-31T10:49:11.454Z,1.48
2022-12-31T10:52:41.543Z,0.98
2022-12-31T10:55:43.282Z,0.88
2022-12-31T10:58:53.983Z,0.70
2022-12-31T11:01:27.276Z,0.70
2022-12-31T11:04:06.195Z,0.68
2022-12-31T11:07:17.378Z,1.27
2022-12-31T11:11:00.242Z,0.80
2022-12-31T11:14:16.196Z,0.90
2022-12-31T11:17:32.951Z,0.77
2022-12-31T11:20:33.004Z,0.90
2022-12-31T11:23:34.485Z,0.80
2022-12-31T11:26:41.558Z,1.00
2022-12-31T11:29:36.222Z,0.98
2022-12-31T11:32:46.681Z,1.10
2022-12-31T11:35:16.771Z,0.80
2022-12-31T11:37:59.094Z,0.77
2022-12-31T11:40:57.040Z,0.80
2022-12-31T11:43:39.612Z,0.90
2022-12-31T11:46:27.859Z,0.63
2022-12-31T11:49:26.555Z,1.40
2022-12-31T11:52:19.648Z,0.60
2022-12-31T11:55:45.189Z,1.00
2022-12-31T11:58:28.376Z,1.38
2022-12-31T12:01:22.730Z,0.80
2022-12-31T12:03:50.079Z,0.93
2022-12-31T12:06:25.825Z,0.68
2022-12-31T12:08:55.997Z,0.73
2022-12-31T12:11:27.788Z,0.82
2022-12-31T12:13:55.045Z,0.70
2022-12-31T12:16:25.856Z,0.70
2022-12-31T12:19:06.756Z,1.08
2022-12-31T12:21:34.788Z,1.25
2022-12-31T12:24:29.224Z,0.80
2022-12-31T12:26:57.809Z,1.02
2022-12-31T12:29:32.339Z,0.73
2022-12-31T12:32:04.356Z,0.90
2022-12-31T12:34:39.470Z,0.98
2022-12-31T12:37:24.679Z,1.15
2022-12-31T12:40:07.067Z,0.88
2022-12-31T12:42:34.323Z,0.73
2022-12-31T12:45:29.128Z,1.25
2022-12-31T12:48:01.894Z,0.80
2022-12-31T12:50:55.332Z,0.80
2022-12-31T12:53:45.509Z,1.30
2022-12-31T12:56:59.229Z,0.80
2022-12-31T13:00:10.253Z,0.88
2022-12-31T13:02:40.257Z,0.77
2022-12-31T13:05:38.572Z,1.30
2022-12-31T13:08:25.878Z,0.85
2022-12-31T13:11:26.528Z,1.02
2022-12-31T13:14:18.086Z,0.60
2022-12-31T13:17:29.647Z,0.75
2022-12-31T13:20:14.194Z,1.20
2022-12-31T13:23:16.951Z,1.10
2022-12-31T13:26:22.734Z,0.73
2022-12-31T13:28:53.773Z,0.80
2022-12-31T13:31:43.146Z,0.93
2022-12-31T13:34:24.614Z,1.10
2022-12-31T13:36:57.139Z,0.63
2022-12-31T13:39:31.405Z,0.90
2022-12-31T13:41:58.287Z,0.60
2022-12-31T13:44:54.989Z,0.80
2022-12-31T13:47:41.005Z,0.90
2022-12-31T13:50:36.526Z,0.85
2022-12-31T13:53:25.929Z,1.67
2022-12-31T13:56:03.663Z,1.02
2022-12-31T13:58:45.148Z,1.52
2022-12-31T14:01:33.499Z,1.17
2022-12-31T14:04:14.018Z,0.90
2022-12-31T14:07:07.325Z,2.40
2022-12-31T14:09:36.059Z,0.90
2022-12-31T14:12:37.720Z,1.73
2022-12-31T14:15:31.238Z,1.48
2022-12-31T14:18:04.800Z,0.90
2022-12-31T14:20:58.908Z,0.90
2022-12-31T14:23:51.116Z,1.95
2022-12-31T14:26:21.158Z,1.35
2022-12-31T14:29:03.688Z,1.17
2022-12-31T14:31:54.295Z,0.75
2022-12-31T14:34:50.786Z,0.80
2022-12-31T14:37:41.939Z,0.98
2022-12-31T14:40:30.800Z,1.15
2022-12-31T14:43:41.458Z,1.13
2022-12-31T14:46:20.645Z,1.00
2022-12-31T14:49:10.503Z,0.88
2022-12-31T14:51:37.889Z,0.88
2022-12-31T14:54:05.284Z,1.17
2022-12-31T14:56:45.272Z,1.08
2022-12-31T14:59:34.428Z,1.35
2022-12-31T15:02:28.432Z,0.90
2022-12-31T15:05:18.225Z,1.17
2022-12-31T15:07:48.392Z,1.27
2022-12-31T15:10:22.777Z,1.10
2022-12-31T15:13:19.583Z,1.17
2022-12-31T15:16:18.929Z,1.08
2022-12-31T15:19:41.160Z,1.00
2022-12-31T15:22:46.338Z,1.15
2022-12-31T15:25:25.713Z,1.30
2022-12-31T15:27:53.520Z,1.90
2022-12-31T15:30:44.114Z,1.38
2022-12-31T15:33:32.542Z,1.40
2022-12-31T15:36:21.170Z,2.08
2022-12-31T15:38:50.107Z,1.77
2022-12-31T15:41:20.288Z,2.10
2022-12-31T15:44:37.127Z,1.80
2022-12-31T15:47:29.597Z,1.90
2022-12-31T15:50:04.195Z,2.00
2022-12-31T15:52:47.829Z,1.63
2022-12-31T15:55:22.339Z,1.60
2022-12-31T15:57:50.896Z,1.90
2022-12-31T16:00:24.340Z,1.42
2022-12-31T16:02:55.397Z,1.63
2022-12-31T16:05:27.145Z,2.97
2022-12-31T16:07:58.041Z,1.60
2022-12-31T16:10:32.850Z,2.10
2022-12-31T16:15:34.123Z,1.67
2022-12-31T16:18:11.106Z,1.35
2022-12-31T16:20:45.993Z,2.90
2022-12-31T16:23:26.389Z,1.80
2022-12-31T16:25:59.870Z,2.92
2022-12-31T16:28:33.029Z,6.75
2022-12-31T16:31:07.535Z,1.92
2022-12-31T16:33:34.793Z,2.65
2022-12-31T16:36:02.296Z,4.35
2022-12-31T16:38:37.976Z,1.95
2022-12-31T16:41:18.455Z,2.63
2022-12-31T16:43:49.129Z,2.70
2022-12-31T16:46:31.922Z,2.28
2022-12-31T16:49:07.195Z,2.95
2022-12-31T16:54:05.068Z,3.72
2022-12-31T16:56:39.626Z,5.22
2022-12-31T16:59:35.656Z,4.28
2022-12-31T17:02:14.129Z,3.75
2022-12-31T17:04:48.097Z,3.45
2022-12-31T17:07:41.056Z,2.83
2022-12-31T17:10:08.170Z,2.83
2022-12-31T17:13:25.033Z,2.83
2022-12-31T17:15:41.858Z,3.47
2022-12-31T17:18:20.537Z,3.08
2022-12-31T17:20:51.624Z,3.17
2022-12-31T17:23:32.643Z,3.15
2022-12-31T17:26:13.941Z,3.58
2022-12-31T17:28:48.713Z,3.00
2022-12-31T17:34:12.509Z,2.30
2022-12-31T17:37:00.586Z,3.10
2022-12-31T17:39:44.592Z,3.53
2022-12-31T17:42:15.480Z,3.38
2022-12-31T17:44:44.693Z,8.52
2022-12-31T17:47:16.420Z,3.30
2022-12-31T17:49:46.627Z,3.30
2022-12-31T17:52:16.162Z,2.85
2022-12-31T17:54:43.129Z,3.50
2022-12-31T17:57:27.871Z,2.65
2022-12-31T17:59:55.231Z,3.27
2022-12-31T18:02:22.501Z,3.45
2022-12-31T18:04:49.662Z,3.40
2022-12-31T18:07:16.873Z,3.40
2022-12-31T18:09:43.730Z,4.15
2022-12-31T18:12:15.856Z,3.08
2022-12-31T18:14:45.862Z,4.03
2022-12-31T18:17:16.457Z,3.17
2022-12-31T18:20:04.089Z,3.45
2022-12-31T18:22:30.908Z,3.63
2022-12-31T18:24:57.770Z,3.67
2022-12-31T18:27:24.974Z,3.92
2022-12-31T18:29:51.964Z,3.13
2022-12-31T18:32:23.964Z,3.13
2022-12-31T18:34:51.684Z,3.53
2022-12-31T18:37:22.242Z,3.05
2022-12-31T18:39:49.523Z,3.10
2022-12-31T18:42:19.178Z,3.35
2022-12-31T18:44:47.099Z,3.72
2022-12-31T18:47:19.818Z,3.63
2022-12-31T18:49:48.592Z,2.70
2022-12-31T18:52:21.677Z,3.67
2022-12-31T18:54:49.922Z,3.83
2022-12-31T18:57:17.252Z,3.05
2022-12-31T18:59:44.172Z,3.20
2022-12-31T19:02:20.392Z,3.85
2022-12-31T19:04:48.561Z,3.20
2022-12-31T19:07:15.712Z,3.90
2022-12-31T19:09:45.592Z,4.10
2022-12-31T19:12:14.959Z,4.88
2022-12-31T19:14:42.050Z,4.30
2022-12-31T19:19:35.115Z,4.78
2022-12-31T19:22:02.921Z,4.20
2022-12-31T19:24:30.197Z,4.70
2022-12-31T19:26:57.604Z,4.40
2022-12-31T19:29:27.146Z,3.58
2022-12-31T19:31:54.909Z,4.07
2022-12-31T19:34:22.232Z,3.20
2022-12-31T19:36:49.542Z,3.15
2022-12-31T19:39:21.238Z,3.75
2022-12-31T19:41:56.475Z,3.95
2022-12-31T19:44:26.592Z,4.53
2022-12-31T19:46:53.773Z,4.30
2022-12-31T19:49:20.821Z,4.18
2022-12-31T19:51:48.159Z,4.15
2022-12-31T19:54:15.279Z,4.32
2022-12-31T19:56:42.590Z,3.78
2022-12-31T19:59:10.911Z,4.63
2022-12-31T20:01:38.861Z,4.55
2022-12-31T20:04:05.966Z,3.47
2022-12-31T20:06:33.384Z,4.43
2022-12-31T20:09:00.416Z,3.97
2022-12-31T20:11:27.784Z,3.83
2022-12-31T20:13:54.759Z,3.58
2022-12-31T20:16:26.710Z,3.63
2022-12-31T20:18:54.230Z,4.18
2022-12-31T20:21:28.074Z,3.70
2022-12-31T20:23:56.373Z,4.50
2022-12-31T20:26:25.988Z,4.00
2022-12-31T20:28:53.677Z,4.30
2022-12-31T20:31:25.435Z,4.22
2022-12-31T20:33:54.724Z,3.78
2022-12-31T20:36:23.368Z,3.53
2022-12-31T20:38:50.511Z,3.58
2022-12-31T20:41:22.950Z,3.47
2022-12-31T20:43:50.662Z,3.65
2022-12-31T20:46:22.489Z,3.50
2022-12-31T20:48:52.486Z,3.80
2022-12-31T20:51:22.863Z,4.00
2022-12-31T20:53:55.496Z,3.70
2022-12-31T20:56:24.920Z,3.40
2022-12-31T20:58:51.939Z,4.28
2022-12-31T21:01:19.640Z,3.70
2022-12-31T21:04:06.211Z,4.45
2022-12-31T21:06:35.854Z,4.50
2022-12-31T21:09:06.658Z,3.70
2022-12-31T21:11:52.838Z,3.88
2022-12-31T21:14:19.924Z,3.40
2022-12-31T21:16:47.297Z,3.85
2022-12-31T21:19:14.304Z,3.80
2022-12-31T21:21:41.882Z,3.20
2022-12-31T21:24:09.132Z,3.47
2022-12-31T21:26:36.554Z,3.17
2022-12-31T21:29:03.497Z,3.65
2022-12-31T21:31:30.843Z,3.30
2022-12-31T21:33:57.804Z,3.67
2022-12-31T21:36:24.997Z,3.30
2022-12-31T21:38:51.949Z,3.15
2022-12-31T21:41:37.823Z,4.05
2022-12-31T21:44:04.783Z,4.55
2022-12-31T21:46:32.145Z,4.38
2022-12-31T21:49:00.644Z,4.70
2022-12-31T21:51:29.119Z,4.60
2022-12-31T21:53:56.666Z,4.97
2022-12-31T21:56:24.650Z,5.97
2022-12-31T21:59:16.746Z,4.35
2022-12-31T22:02:03.134Z,5.63
2022-12-31T22:07:17.887Z,4.80
2022-12-31T22:09:44.891Z,5.05
2022-12-31T22:12:12.165Z,6.80
2022-12-31T22:14:39.278Z,5.85
2022-12-31T22:17:26.482Z,4.30
2022-12-31T22:20:17.544Z,4.60
2022-12-31T22:22:40.536Z,4.80
2022-12-31T22:25:08.739Z,5.43
2022-12-31T22:27:35.908Z,5.15
2022-12-31T22:30:03.015Z,7.15
2022-12-31T22:32:30.291Z,9.77
2022-12-31T22:34:57.237Z,13.20
2022-12-31T22:37:55.537Z,11.20
2022-12-31T22:40:11.964Z,7.75
2022-12-31T22:42:39.181Z,6.75
2022-12-31T22:45:08.549Z,5.22
2022-12-31T22:47:35.794Z,6.88
2022-12-31T22:50:02.805Z,6.45
2022-12-31T22:52:31.023Z,6.47
2022-12-31T22:54:58.075Z,5.78
2022-12-31T22:57:25.198Z,6.25
2022-12-31T22:59:52.138Z,7.13
2022-12-31T23:02:19.349Z,8.55
2022-12-31T23:04:46.459Z,6.28
2022-12-31T23:07:13.714Z,8.13
2022-12-31T23:09:59.097Z,9.48
2022-12-31T23:12:26.606Z,16.60
2022-12-31T23:15:11.906Z,28.13
2022-12-31T23:17:57.621Z,34.03
2022-12-31T23:20:44.012Z,31.48
2022-12-31T23:23:16.907Z,32.58
2022-12-31T23:25:48.592Z,42.13
2022-12-31T23:28:22.610Z,43.13
2022-12-31T23:30:51.594Z,38.72
2022-12-31T23:33:26.317Z,33.20
2022-12-31T23:36:07.287Z,29.17
2022-12-31T23:38:34.568Z,31.52
2022-12-31T23:41:10.732Z,28.73
2022-12-31T23:43:37.980Z,25.52
2022-12-31T23:46:05.086Z,24.75
2022-12-31T23:48:32.282Z,21.48
2022-12-31T23:50:59.280Z,15.90
2022-12-31T23:53:26.537Z,14.73
2022-12-31T23:55:54.047Z,14.50
2022-12-31T23:58:22.390Z,12.77
